Terminal Aerodrome Forecast
Issued by NWS

Home | Current Version | Previous Version | Text Only | Print | Product List | Glossary On
Versions: 1 2 3 4 5 6 7 8 9 10 11 12 13 14 15 16 17
670
FTUS43 KAPX 271120
TAFPLN
TAF
KPLN 271120Z 2712/2812 14007KT P6SM BKN005 BKN060 WS020/18040KT
     FM271400 16009KT P6SM BKN060
     FM271600 18010G21KT P6SM BKN045
     FM271800 21011G23KT P6SM -SHRA OVC030
     FM272000 23012G26KT P6SM -SHRA OVC020
     FM280000 24011G24KT P6SM OVC015
     FM280200 24010G21KT P6SM BKN020=

USA.gov is the U.S. government's official web portal to all federal, state and local government web resources and services.